Avon, OH

2:35 PM EDT on August 24, 2019 (GMT -0400)
Northgate | | Change Station
Active Advisory: Beach Hazard Statement

Elev 695 ft 41.46 °N, 82.04 °W | Updated 6 seconds ago

Partly Cloudy
Partly Cloudy
73.9 °F
Feels Like 76 °F
N
3
Wind Variable Wind from ESE
Gusts 4.0 mph

Today
High -- | Low -- °F
--% Chance of Precip.
Yesterday
High -- | Low -- °F
Precip. -- in
Pressure 30.27 in
Visibility 10.0 miles
Clouds Scattered Clouds 3700 ft
Mostly Cloudy 6000 ft
Heat Index 76 °F
Dew Point 61 °F
Humidity 64%
Rainfall 1.14 in
Snow Depth Not available.
6:46 AM 8:14 PM
Last Quarter, 38% visible
METAR KCLE 241751Z COR 05013KT 10SM SCT037 BKN060 23/13 A3027 RMK AO2 SLP248 T02280133 10228 20178 56006 $
Pressure 30.27 in
Visibility 10.0 miles
Clouds Scattered Clouds 3700 ft
Mostly Cloudy 6000 ft
Heat Index 76 °F
Dew Point 61 °F
Humidity 64%
Rainfall 1.14 in
Snow Depth Not available.
6:46 AM 8:14 PM
Last Quarter, 38% visible
METAR KCLE 241751Z COR 05013KT 10SM SCT037 BKN060 23/13 A3027 RMK AO2 SLP248 T02280133 10228 20178 56006 $

Get Your Daily Forecast Email!

Thanks for signing up!

Be on the lookout for a verification email in your inbox.

You'll start receiving severe weather alerts in your inbox..

×

10-Day Weather Forecast

Almanac

Astronomy

Aug. 24, 2019 Rise Set
Actual Time
Civil Twilight
Nautical Twilight
Astronomical Twilight
Moon
Length of Visible Light
Length of Day
Tomorrow will be .
, % of the Moon is Illuminated

Today's Extremes

State Highs State Lows

Community

WunderPhotos

Category 6

Welcome to Category 6. This is the collective home for Weather Underground's featured writeups by Dr. Jeff Masters (right), Bob Henson (left), Chris Burt, and other regular contributors.

Nearby

Air Quality

  Air Quality AQ Index Pollutant
Not available.

Snow Depth

Station Depth Elevation

Earthquake Activity

City Distance Mag. Time & Date
Minimum magnitude displayed is 2.5.

Coastal Water Temperatures

Place Temperature

Stations

Nearby Weather Stations

Station Location Temp. Windchill Dew Point Humidity Wind Precip. Elev Updated Type
                   

Watches & Warnings

Beach Hazard Statement
Issued: 9:59 AM EDT Aug. 24, 2019 – National Weather Service

... Beach hazards statement in effect through this evening...

The National Weather Service in Cleveland has issued a beach
hazards statement, which is in effect through this evening.

* Locations... Ottawa, Erie, Lorain, Cuyahoga and lake.

* Timing... through this evening.

* Beach hazards... high swimming risk from waves and dangerous
currents.

Precautionary/preparedness actions...

A beach hazards statement is issued when swimming risks exist
from a combination of wind and large waves including rip currents
and longshore currents. These swimming risks can create life-
threatening conditions even for good swimmers. Follow the
instruction of local authorities or stay out of the water.